createdAt,value
2023-04-23T00:02:09.503Z,100.00
2023-04-23T00:04:39.794Z,100.00
2023-04-23T00:07:09.297Z,100.00
2023-04-23T00:09:37.901Z,100.00
2023-04-23T00:12:07.871Z,100.00
2023-04-23T00:14:36.634Z,100.00
2023-04-23T00:17:05.020Z,100.00
2023-04-23T00:19:35.581Z,100.00
2023-04-23T00:22:03.721Z,100.00
2023-04-23T00:24:32.140Z,100.00
2023-04-23T00:27:00.279Z,100.00
2023-04-23T00:29:28.338Z,100.00
2023-04-23T00:31:56.388Z,100.00
2023-04-23T00:34:24.582Z,100.00
2023-04-23T00:36:53.966Z,100.00
2023-04-23T00:39:22.276Z,100.00
2023-04-23T00:41:50.242Z,100.00
2023-04-23T00:44:18.362Z,100.00
2023-04-23T00:46:47.459Z,100.00
2023-04-23T00:49:16.533Z,100.00
2023-04-23T00:51:44.553Z,100.00
2023-04-23T00:54:14.439Z,100.00
2023-04-23T00:56:42.636Z,100.00
2023-04-23T00:59:10.740Z,100.00
2023-04-23T01:01:38.892Z,100.00
2023-04-23T01:04:07.306Z,100.00
2023-04-23T01:06:35.809Z,100.00
2023-04-23T01:09:06.200Z,100.00
2023-04-23T01:11:35.700Z,100.00
2023-04-23T01:14:04.850Z,100.00
2023-04-23T01:16:33.018Z,100.00
2023-04-23T01:19:02.225Z,100.00
2023-04-23T01:21:31.704Z,100.00
2023-04-23T01:24:01.273Z,100.00
2023-04-23T01:26:29.500Z,100.00
2023-04-23T01:28:57.767Z,100.00
2023-04-23T01:31:26.169Z,100.00
2023-04-23T01:33:55.425Z,100.00
2023-04-23T01:36:24.670Z,100.00
2023-04-23T01:38:53.340Z,100.00
2023-04-23T01:41:22.947Z,100.00
2023-04-23T01:43:51.064Z,100.00
2023-04-23T01:46:19.115Z,100.00
2023-04-23T01:48:47.019Z,100.00
2023-04-23T01:51:15.453Z,100.00
2023-04-23T01:53:43.540Z,100.00
2023-04-23T01:56:11.806Z,100.00
2023-04-23T01:58:41.323Z,100.00
2023-04-23T02:01:09.528Z,100.00
2023-04-23T02:03:37.791Z,100.00
2023-04-23T02:06:06.495Z,100.00
2023-04-23T02:08:34.666Z,100.00
2023-04-23T02:11:02.993Z,100.00
2023-04-23T02:13:30.942Z,100.00
2023-04-23T02:16:00.703Z,100.00
2023-04-23T02:18:28.873Z,100.00
2023-04-23T02:20:58.677Z,100.00
2023-04-23T02:23:26.666Z,100.00
2023-04-23T02:25:54.889Z,100.00
2023-04-23T02:28:22.965Z,100.00
2023-04-23T02:30:51.051Z,100.00
2023-04-23T02:33:21.073Z,100.00
2023-04-23T02:35:49.155Z,100.00
2023-04-23T02:38:17.693Z,100.00
2023-04-23T02:40:45.865Z,100.00
2023-04-23T02:43:13.987Z,100.00
2023-04-23T02:45:43.292Z,100.00
2023-04-23T02:48:11.245Z,100.00
2023-04-23T02:50:41.705Z,100.00
2023-04-23T02:53:09.761Z,100.00
2023-04-23T02:55:37.948Z,100.00
2023-04-23T02:58:06.673Z,100.00
2023-04-23T03:00:34.833Z,100.00
2023-04-23T03:03:02.988Z,100.00
2023-04-23T03:05:31.348Z,100.00
2023-04-23T03:08:00.823Z,100.00
2023-04-23T03:10:28.946Z,100.00
2023-04-23T03:12:57.644Z,100.00
2023-04-23T03:15:28.266Z,100.00
2023-04-23T03:17:56.573Z,100.00
2023-04-23T03:20:24.871Z,100.00
2023-04-23T03:22:53.085Z,100.00
2023-04-23T03:25:24.501Z,100.00
2023-04-23T03:27:52.672Z,100.00
2023-04-23T03:30:21.966Z,100.00
2023-04-23T03:32:51.086Z,100.00
2023-04-23T03:35:19.267Z,100.00
2023-04-23T03:37:47.410Z,100.00
2023-04-23T03:40:15.562Z,100.00
2023-04-23T03:42:45.116Z,100.00
2023-04-23T03:45:14.597Z,100.00
2023-04-23T03:47:42.653Z,100.00
2023-04-23T03:50:13.379Z,100.00
2023-04-23T03:52:42.065Z,100.00
2023-04-23T03:55:10.889Z,100.00
2023-04-23T03:57:39.076Z,100.00
2023-04-23T04:00:11.858Z,100.00
2023-04-23T04:02:40.408Z,100.00
2023-04-23T04:05:11.496Z,100.00
2023-04-23T04:07:40.212Z,100.00
2023-04-23T04:10:09.316Z,100.00
2023-04-23T04:12:37.550Z,100.00
2023-04-23T04:15:06.457Z,100.00
2023-04-23T04:17:35.931Z,100.00
2023-04-23T04:20:03.987Z,100.00
2023-04-23T04:22:32.339Z,100.00
2023-04-23T04:25:00.370Z,100.00
2023-04-23T04:27:28.691Z,100.00
2023-04-23T04:29:56.797Z,100.00
2023-04-23T04:32:24.936Z,100.00
2023-04-23T04:34:54.445Z,100.00
2023-04-23T04:37:22.589Z,100.00
2023-04-23T04:39:51.437Z,100.00
2023-04-23T04:42:20.435Z,100.00
2023-04-23T04:44:48.418Z,100.00
2023-04-23T04:47:16.448Z,100.00
2023-04-23T04:49:45.138Z,97.07
2023-04-23T04:52:14.750Z,92.33
2023-04-23T04:54:42.871Z,89.90
2023-04-23T04:57:11.276Z,85.35
2023-04-23T04:59:39.660Z,83.67
2023-04-23T05:02:08.135Z,84.95
2023-04-23T05:04:36.260Z,85.15
2023-04-23T05:07:04.349Z,83.71
2023-04-23T05:09:33.839Z,84.54
2023-04-23T05:12:02.940Z,87.07
2023-04-23T05:14:30.972Z,87.38
2023-04-23T05:16:59.080Z,83.99
2023-04-23T05:19:27.128Z,83.02
2023-04-23T05:21:55.249Z,81.83
2023-04-23T05:24:23.574Z,81.39
2023-04-23T05:26:53.106Z,80.11
2023-04-23T05:29:21.218Z,81.29
2023-04-23T05:31:49.341Z,81.03
2023-04-23T05:34:17.285Z,82.51
2023-04-23T05:36:45.285Z,83.14
2023-04-23T05:39:13.300Z,80.75
2023-04-23T05:41:41.311Z,80.46
2023-04-23T05:44:10.735Z,80.75
2023-04-23T05:46:38.814Z,79.43
2023-04-23T05:49:07.099Z,80.19
2023-04-23T05:51:35.179Z,86.67
2023-04-23T05:54:03.543Z,88.85
2023-04-23T05:56:31.527Z,85.36
2023-04-23T05:58:59.593Z,83.55
2023-04-23T06:01:29.024Z,79.19
2023-04-23T06:03:57.325Z,79.85
2023-04-23T06:06:26.206Z,78.70
2023-04-23T06:08:54.553Z,79.21
2023-04-23T06:11:22.763Z,78.38
2023-04-23T06:13:50.889Z,76.32
2023-04-23T06:16:19.202Z,75.34
2023-04-23T06:18:48.691Z,74.75
2023-04-23T06:21:18.099Z,75.52
2023-04-23T06:23:46.766Z,73.95
2023-04-23T06:26:14.916Z,72.28
2023-04-23T06:28:43.498Z,70.61
2023-04-23T06:31:11.875Z,66.45
2023-04-23T06:33:39.999Z,66.29
2023-04-23T06:36:11.129Z,68.22
2023-04-23T06:38:39.700Z,70.11
2023-04-23T06:41:09.207Z,68.73
2023-04-23T06:43:37.502Z,69.55
2023-04-23T06:46:05.488Z,68.74
2023-04-23T06:48:33.974Z,67.37
2023-04-23T06:51:02.568Z,67.96
2023-04-23T06:53:32.020Z,67.79
2023-04-23T06:56:00.318Z,66.71
2023-04-23T06:58:31.605Z,66.88
2023-04-23T07:01:04.383Z,66.36
2023-04-23T07:03:32.922Z,67.71
2023-04-23T07:06:01.395Z,65.06
2023-04-23T07:08:29.663Z,64.37
2023-04-23T07:10:59.202Z,62.78
2023-04-23T07:13:27.366Z,61.09
2023-04-23T07:15:55.499Z,60.59
2023-04-23T07:18:23.568Z,60.51
2023-04-23T07:20:51.710Z,59.54
2023-04-23T07:23:19.759Z,58.95
2023-04-23T07:25:48.044Z,60.08
2023-04-23T07:28:17.573Z,58.05
2023-04-23T07:30:45.639Z,59.63
2023-04-23T07:33:14.009Z,58.09
2023-04-23T07:35:42.100Z,56.96
2023-04-23T07:38:10.182Z,58.19
2023-04-23T07:40:38.268Z,57.83
2023-04-23T07:43:07.287Z,60.32
2023-04-23T07:45:36.861Z,58.77
2023-04-23T07:48:05.080Z,62.10
2023-04-23T07:50:33.167Z,66.17
2023-04-23T07:53:01.327Z,61.16
2023-04-23T07:55:29.421Z,61.44
2023-04-23T07:57:57.700Z,57.46
2023-04-23T08:00:26.058Z,58.62
2023-04-23T08:02:56.266Z,59.47
2023-04-23T08:05:24.389Z,56.82
2023-04-23T08:07:52.325Z,54.65
2023-04-23T08:10:20.519Z,55.12
2023-04-23T08:12:48.609Z,54.10
2023-04-23T08:15:16.686Z,57.17
2023-04-23T08:17:44.872Z,59.21
2023-04-23T08:20:14.494Z,57.15
2023-04-23T08:22:42.685Z,58.13
2023-04-23T08:25:11.241Z,61.13
2023-04-23T08:27:39.345Z,61.53
2023-04-23T08:30:08.739Z,58.49
2023-04-23T08:32:38.467Z,58.11
2023-04-23T08:35:10.433Z,55.89
2023-04-23T08:37:41.436Z,54.47
2023-04-23T08:40:11.806Z,54.81
2023-04-23T08:42:43.904Z,56.07
2023-04-23T08:45:13.334Z,55.02
2023-04-23T08:47:43.646Z,57.60
2023-04-23T08:50:13.232Z,56.35
2023-04-23T08:52:47.932Z,54.76
2023-04-23T08:55:18.936Z,52.48
2023-04-23T08:57:48.264Z,50.50
2023-04-23T09:00:18.079Z,54.63
2023-04-23T09:02:47.783Z,54.35
2023-04-23T09:05:16.457Z,52.74
2023-04-23T09:07:46.588Z,53.58
2023-04-23T09:10:18.505Z,52.34
2023-04-23T09:12:48.356Z,52.37
2023-04-23T09:15:16.781Z,53.37
2023-04-23T09:17:46.411Z,53.34
2023-04-23T09:20:15.958Z,50.10
2023-04-23T09:22:47.763Z,48.76
2023-04-23T09:25:18.143Z,47.92
2023-04-23T09:27:46.935Z,48.12
2023-04-23T09:30:15.906Z,46.33
2023-04-23T09:32:46.244Z,44.93
2023-04-23T09:35:15.735Z,45.60
2023-04-23T09:37:48.858Z,46.07
2023-04-23T09:40:18.596Z,45.35
2023-04-23T09:42:50.089Z,46.91
2023-04-23T09:45:18.791Z,46.40
2023-04-23T09:47:51.748Z,45.96
2023-04-23T09:50:20.355Z,45.95
2023-04-23T09:52:56.325Z,43.95
2023-04-23T09:55:30.811Z,43.36
2023-04-23T09:57:59.811Z,42.88
2023-04-23T10:00:30.751Z,43.33
2023-04-23T10:03:01.350Z,42.13
2023-04-23T10:05:37.317Z,43.88
2023-04-23T10:08:19.991Z,42.58
2023-04-23T10:13:21.479Z,41.34
2023-04-23T10:15:49.753Z,39.80
2023-04-23T10:18:17.903Z,40.66
2023-04-23T10:20:46.313Z,39.71
2023-04-23T10:23:16.404Z,40.61
2023-04-23T10:25:47.005Z,38.19
2023-04-23T10:28:17.663Z,39.07
2023-04-23T10:30:46.372Z,37.03
2023-04-23T10:33:26.408Z,37.81
2023-04-23T10:35:58.363Z,37.43
2023-04-23T10:38:28.467Z,36.19
2023-04-23T10:41:00.232Z,35.75
2023-04-23T10:43:28.385Z,35.61
2023-04-23T10:45:56.666Z,33.20
2023-04-23T10:48:24.643Z,33.01
2023-04-23T10:51:17.545Z,33.67
2023-04-23T10:53:47.667Z,33.28
2023-04-23T10:56:17.065Z,32.91
2023-04-23T10:58:52.985Z,32.49
2023-04-23T11:01:22.243Z,33.38
2023-04-23T11:03:53.077Z,33.70
2023-04-23T11:06:43.530Z,35.10
2023-04-23T11:09:32.078Z,33.76
2023-04-23T11:12:03.216Z,31.88
2023-04-23T11:14:53.020Z,33.11
2023-04-23T11:18:04.949Z,33.07
2023-04-23T11:20:33.181Z,34.11
2023-04-23T11:23:01.245Z,33.57
2023-04-23T11:25:30.504Z,33.60
2023-04-23T11:28:00.302Z,32.63
2023-04-23T11:30:29.969Z,30.97
2023-04-23T11:33:00.403Z,30.98
2023-04-23T11:35:30.658Z,32.44
2023-04-23T11:37:58.812Z,33.03
2023-04-23T11:40:31.124Z,32.94
2023-04-23T11:43:02.818Z,33.00
2023-04-23T11:45:30.955Z,32.59
2023-04-23T11:48:01.785Z,32.79
2023-04-23T11:50:33.192Z,33.39
2023-04-23T11:53:06.453Z,31.70
2023-04-23T11:55:34.748Z,32.30
2023-04-23T11:58:04.421Z,32.76
2023-04-23T12:00:32.555Z,31.51
2023-04-23T12:03:01.841Z,31.55
2023-04-23T12:05:32.955Z,30.20
2023-04-23T12:08:10.974Z,29.97
2023-04-23T12:10:47.527Z,31.20
2023-04-23T12:13:18.365Z,31.54
2023-04-23T12:15:51.266Z,31.53
2023-04-23T12:18:20.283Z,31.18
2023-04-23T12:20:48.316Z,30.87
2023-04-23T12:23:16.329Z,30.43
2023-04-23T12:25:44.362Z,31.62
2023-04-23T12:28:12.838Z,33.13
2023-04-23T12:30:46.276Z,33.86
2023-04-23T12:33:15.016Z,33.75
2023-04-23T12:35:44.668Z,32.97
2023-04-23T12:38:24.051Z,32.64
2023-04-23T12:40:52.209Z,33.52
2023-04-23T12:43:20.391Z,34.20
2023-04-23T12:45:53.097Z,34.52
2023-04-23T12:48:21.693Z,34.78
2023-04-23T12:50:50.460Z,35.61
2023-04-23T12:53:21.372Z,34.84
2023-04-23T12:55:50.555Z,35.14
2023-04-23T12:58:18.904Z,35.17
2023-04-23T13:00:47.541Z,34.78
2023-04-23T13:03:19.689Z,34.84
2023-04-23T13:05:48.163Z,34.26
2023-04-23T13:08:16.048Z,34.61
2023-04-23T13:10:45.037Z,34.31
2023-04-23T13:13:13.112Z,34.49
2023-04-23T13:15:41.172Z,35.20
2023-04-23T13:18:09.306Z,35.04
2023-04-23T13:20:38.684Z,34.58
2023-04-23T13:23:08.827Z,33.93
2023-04-23T13:25:37.071Z,32.87
2023-04-23T13:28:05.242Z,33.92
2023-04-23T13:30:33.182Z,34.22
2023-04-23T13:33:01.294Z,34.13
2023-04-23T13:35:29.487Z,33.64
2023-04-23T13:38:00.352Z,34.07
2023-04-23T13:40:28.480Z,33.75
2023-04-23T13:42:56.455Z,33.29
2023-04-23T13:45:24.488Z,33.62
2023-04-23T13:47:52.667Z,33.17
2023-04-23T13:50:20.975Z,33.00
2023-04-23T13:52:51.500Z,32.88
2023-04-23T13:55:21.377Z,33.23
2023-04-23T13:57:49.442Z,34.93
2023-04-23T14:00:18.544Z,35.65
2023-04-23T14:02:46.826Z,37.32
2023-04-23T14:05:14.902Z,37.22
2023-04-23T14:07:42.945Z,37.60
2023-04-23T14:10:11.470Z,37.26
2023-04-23T14:12:40.877Z,37.61
2023-04-23T14:15:10.447Z,37.31
2023-04-23T14:17:39.400Z,37.21
2023-04-23T14:20:09.402Z,37.27
2023-04-23T14:22:37.846Z,36.53
2023-04-23T14:25:10.215Z,36.78
2023-04-23T14:27:43.146Z,36.44
2023-04-23T14:30:17.513Z,36.14
2023-04-23T14:32:49.448Z,36.43
2023-04-23T14:35:21.283Z,35.93
2023-04-23T14:37:57.352Z,36.78
2023-04-23T14:40:25.281Z,36.41
2023-04-23T14:42:56.998Z,37.39
2023-04-23T14:45:31.415Z,37.71
2023-04-23T14:48:00.104Z,38.17
2023-04-23T14:50:29.080Z,38.38
2023-04-23T14:52:58.909Z,38.12
2023-04-23T14:55:27.281Z,40.73
2023-04-23T14:57:56.627Z,42.75
2023-04-23T15:00:24.764Z,43.86
2023-04-23T15:02:53.369Z,44.38
2023-04-23T15:05:21.540Z,44.74
2023-04-23T15:07:51.482Z,44.74
2023-04-23T15:10:21.645Z,43.95
2023-04-23T15:13:02.675Z,44.50
2023-04-23T15:15:44.340Z,44.12
2023-04-23T15:18:13.136Z,44.33
2023-04-23T15:20:41.169Z,44.62
2023-04-23T15:23:09.360Z,44.16
2023-04-23T15:25:37.666Z,43.24
2023-04-23T15:28:07.706Z,43.90
2023-04-23T15:30:35.746Z,42.65
2023-04-23T15:33:03.800Z,44.17
2023-04-23T15:35:32.338Z,44.55
2023-04-23T15:38:01.579Z,44.93
2023-04-23T15:40:30.366Z,45.44
2023-04-23T15:42:58.423Z,45.58
2023-04-23T15:45:27.770Z,45.78
2023-04-23T15:47:55.954Z,45.71
2023-04-23T15:50:26.725Z,45.62
2023-04-23T15:52:55.327Z,45.80
2023-04-23T15:55:23.427Z,46.35
2023-04-23T15:57:51.615Z,46.55
2023-04-23T16:00:19.696Z,46.14
2023-04-23T16:02:49.524Z,47.06
2023-04-23T16:05:18.986Z,46.69
2023-04-23T16:07:47.243Z,47.13
2023-04-23T16:10:15.380Z,47.22
2023-04-23T16:12:45.742Z,47.62
2023-04-23T16:15:13.968Z,48.51
2023-04-23T16:17:42.072Z,48.72
2023-04-23T16:20:12.555Z,49.07
2023-04-23T16:22:40.600Z,49.21
2023-04-23T16:25:09.403Z,49.58
2023-04-23T16:27:37.616Z,50.06
2023-04-23T16:30:06.170Z,50.47
2023-04-23T16:32:36.143Z,50.59
2023-04-23T16:35:04.493Z,50.97
2023-04-23T16:37:34.021Z,51.17
2023-04-23T16:40:02.488Z,51.08
2023-04-23T16:42:30.461Z,51.14
2023-04-23T16:44:59.797Z,50.74
2023-04-23T16:47:28.260Z,50.85
2023-04-23T16:49:56.224Z,51.09
2023-04-23T16:52:24.288Z,50.76
2023-04-23T16:54:53.631Z,50.82
2023-04-23T16:57:22.503Z,51.17
2023-04-23T16:59:52.609Z,51.84
2023-04-23T17:02:21.095Z,51.78
2023-04-23T17:04:49.773Z,52.37
2023-04-23T17:07:18.002Z,52.96
2023-04-23T17:09:46.155Z,53.93
2023-04-23T17:12:15.446Z,54.53
2023-04-23T17:14:43.664Z,55.60
2023-04-23T17:17:11.881Z,55.89
2023-04-23T17:19:39.925Z,56.30
2023-04-23T17:22:10.710Z,56.92
2023-04-23T17:24:39.200Z,57.30
2023-04-23T17:27:07.373Z,57.53
2023-04-23T17:29:36.844Z,57.81
2023-04-23T17:32:04.892Z,58.45
2023-04-23T17:34:35.059Z,58.61
2023-04-23T17:37:03.143Z,59.25
2023-04-23T17:39:32.153Z,59.85
2023-04-23T17:42:00.347Z,60.08
2023-04-23T17:44:28.640Z,60.93
2023-04-23T17:46:57.955Z,60.91
2023-04-23T17:49:26.051Z,61.57
2023-04-23T17:51:54.339Z,61.95
2023-04-23T17:54:22.565Z,62.00
2023-04-23T17:56:52.082Z,62.43
2023-04-23T17:59:20.107Z,62.75
2023-04-23T18:01:50.798Z,62.65
2023-04-23T18:04:20.368Z,62.69
2023-04-23T18:06:48.473Z,63.28
2023-04-23T18:09:16.475Z,63.46
2023-04-23T18:11:45.010Z,64.13
2023-04-23T18:14:13.387Z,64.29
2023-04-23T18:16:41.507Z,65.11
2023-04-23T18:19:09.931Z,65.77
2023-04-23T18:21:39.995Z,65.65
2023-04-23T18:24:08.066Z,66.15
2023-04-23T18:26:36.088Z,66.35
2023-04-23T18:29:04.094Z,67.06
2023-04-23T18:31:32.856Z,67.26
2023-04-23T18:34:03.065Z,68.12
2023-04-23T18:36:32.985Z,68.37
2023-04-23T18:39:02.509Z,69.14
2023-04-23T18:41:31.054Z,70.31
2023-04-23T18:44:02.799Z,71.22
2023-04-23T18:46:32.140Z,71.81
2023-04-23T18:49:02.521Z,72.36
2023-04-23T18:51:34.943Z,72.67
2023-04-23T18:54:06.003Z,73.56
2023-04-23T18:56:34.164Z,74.14
2023-04-23T18:59:02.273Z,74.55
2023-04-23T19:01:30.578Z,74.80
2023-04-23T19:03:58.623Z,75.85
2023-04-23T19:06:26.958Z,75.58
2023-04-23T19:08:56.348Z,76.17
2023-04-23T19:11:30.282Z,76.07
2023-04-23T19:13:58.489Z,77.02
2023-04-23T19:16:26.942Z,76.33
2023-04-23T19:18:55.012Z,76.43
2023-04-23T19:21:23.332Z,76.59
2023-04-23T19:23:51.886Z,76.91
2023-04-23T19:26:19.874Z,76.98
2023-04-23T19:28:49.437Z,77.37
2023-04-23T19:31:17.629Z,76.87
2023-04-23T19:33:47.643Z,77.14
2023-04-23T19:36:15.997Z,77.30
2023-04-23T19:38:44.590Z,77.08
2023-04-23T19:41:12.633Z,77.08
2023-04-23T19:43:41.459Z,76.86
2023-04-23T19:46:10.957Z,76.38
2023-04-23T19:48:38.948Z,76.54
2023-04-23T19:51:07.731Z,76.49
2023-04-23T19:53:35.843Z,76.55
2023-04-23T19:56:04.546Z,76.36
2023-04-23T19:58:32.459Z,76.05
2023-04-23T20:01:00.528Z,76.68
2023-04-23T20:03:30.835Z,76.55
2023-04-23T20:05:59.477Z,76.52
2023-04-23T20:08:29.728Z,76.14
2023-04-23T20:10:58.728Z,76.78
2023-04-23T20:13:27.006Z,77.13
2023-04-23T20:15:55.181Z,77.21
2023-04-23T20:18:25.758Z,77.60
2023-04-23T20:20:55.098Z,77.87
2023-04-23T20:23:23.110Z,78.20
2023-04-23T20:25:51.206Z,78.43
2023-04-23T20:28:19.280Z,78.18
2023-04-23T20:30:47.452Z,78.58
2023-04-23T20:33:16.074Z,78.87
2023-04-23T20:35:44.199Z,78.76
2023-04-23T20:38:14.137Z,78.66
2023-04-23T20:40:42.249Z,78.82
2023-04-23T20:43:11.452Z,78.39
2023-04-23T20:45:40.339Z,78.39
2023-04-23T20:48:08.880Z,78.19
2023-04-23T20:50:37.201Z,78.86
2023-04-23T20:53:05.299Z,78.55
2023-04-23T20:55:34.738Z,78.57
2023-04-23T20:58:02.701Z,79.00
2023-04-23T21:00:31.206Z,78.77
2023-04-23T21:02:59.843Z,79.12
2023-04-23T21:05:28.079Z,79.07
2023-04-23T21:07:56.411Z,79.59
2023-04-23T21:10:24.636Z,79.52
2023-04-23T21:12:55.159Z,79.65
2023-04-23T21:15:23.295Z,79.45
2023-04-23T21:17:51.813Z,79.43
2023-04-23T21:20:20.136Z,79.28
2023-04-23T21:22:48.092Z,79.24
2023-04-23T21:25:16.214Z,78.91
2023-04-23T21:27:48.436Z,78.47
2023-04-23T21:30:25.537Z,78.31
2023-04-23T21:32:54.364Z,78.38
2023-04-23T21:35:22.645Z,78.26
2023-04-23T21:37:50.805Z,78.61
2023-04-23T21:40:20.892Z,78.66
2023-04-23T21:42:49.982Z,78.23
2023-04-23T21:45:19.682Z,78.59
2023-04-23T21:47:47.775Z,78.31
2023-04-23T21:50:17.598Z,78.35
2023-04-23T21:52:45.779Z,78.36
2023-04-23T21:55:13.780Z,78.76
2023-04-23T21:57:41.810Z,78.55
2023-04-23T22:00:14.106Z,78.63
2023-04-23T22:02:46.436Z,78.36
2023-04-23T22:05:17.065Z,78.38
2023-04-23T22:07:45.124Z,77.85
2023-04-23T22:10:14.866Z,77.79
2023-04-23T22:12:43.706Z,77.40
2023-04-23T22:15:15.214Z,77.49
2023-04-23T22:17:46.418Z,77.45
2023-04-23T22:20:15.909Z,76.81
2023-04-23T22:22:44.201Z,76.21
2023-04-23T22:25:12.953Z,76.12
2023-04-23T22:27:42.519Z,76.11
2023-04-23T22:30:12.138Z,76.00
2023-04-23T22:32:41.006Z,75.92
2023-04-23T22:35:11.112Z,75.97
2023-04-23T22:37:39.662Z,76.38
2023-04-23T22:40:09.662Z,76.22
2023-04-23T22:42:37.993Z,76.54
2023-04-23T22:45:07.360Z,76.43
2023-04-23T22:47:35.531Z,76.21
2023-04-23T22:50:03.864Z,75.86
2023-04-23T22:52:33.920Z,75.83
2023-04-23T22:55:02.247Z,75.93
2023-04-23T22:57:31.926Z,76.39
2023-04-23T23:00:00.054Z,76.14
2023-04-23T23:02:28.295Z,76.65
2023-04-23T23:04:56.367Z,76.26
2023-04-23T23:07:24.459Z,75.83
2023-04-23T23:09:53.972Z,75.62
2023-04-23T23:12:22.593Z,75.44
2023-04-23T23:14:50.613Z,75.39
2023-04-23T23:17:18.776Z,75.36
2023-04-23T23:19:46.914Z,75.51
2023-04-23T23:22:15.142Z,75.63
2023-04-23T23:24:43.121Z,75.71
2023-04-23T23:27:12.568Z,75.77
2023-04-23T23:29:40.879Z,75.99
2023-04-23T23:32:09.193Z,76.05
2023-04-23T23:34:37.342Z,76.47
2023-04-23T23:37:05.751Z,76.96
2023-04-23T23:39:33.776Z,77.51
2023-04-23T23:42:02.444Z,78.12
2023-04-23T23:44:31.974Z,77.78
2023-04-23T23:47:00.509Z,77.64
2023-04-23T23:49:28.651Z,78.18
2023-04-23T23:51:56.847Z,78.27
2023-04-23T23:54:24.983Z,78.21
2023-04-23T23:56:53.133Z,78.13
2023-04-23T23:59:21.256Z,78.60
